createdAt,value
2016-11-04T00:01:22.545Z,43.8
2016-11-04T00:06:26.634Z,43.8
2016-11-04T00:11:30.720Z,43.8
2016-11-04T00:16:35.143Z,43.7
2016-11-04T00:21:39.233Z,43.7
2016-11-04T00:26:43.987Z,43.7
2016-11-04T00:31:48.075Z,43.7
2016-11-04T00:36:52.165Z,43.7
2016-11-04T00:41:56.586Z,43.6
2016-11-04T00:47:00.666Z,43.6
2016-11-04T00:52:04.757Z,43.6
2016-11-04T00:57:09.518Z,43.6
2016-11-04T01:02:13.939Z,43.6
2016-11-04T01:07:18.035Z,43.6
2016-11-04T01:12:22.121Z,43.6
2016-11-04T01:17:26.218Z,43.6
2016-11-04T01:22:30.640Z,43.6
2016-11-04T01:27:35.061Z,43.6
2016-11-04T01:32:39.151Z,43.6
2016-11-04T01:37:43.572Z,43.6
2016-11-04T01:42:47.664Z,43.6
2016-11-04T01:47:52.085Z,43.6
2016-11-04T01:52:56.513Z,43.6
2016-11-04T01:58:00.941Z,43.6
2016-11-04T02:03:05.030Z,43.5
2016-11-04T02:08:09.114Z,43.5
2016-11-04T02:13:13.205Z,43.5
2016-11-04T02:18:18.295Z,43.5
2016-11-04T02:23:23.050Z,43.4
2016-11-04T02:28:27.470Z,43.4
2016-11-04T02:33:31.558Z,43.4
2016-11-04T02:38:35.974Z,43.3
2016-11-04T02:43:40.060Z,43.4
2016-11-04T02:48:44.145Z,43.4
2016-11-04T02:53:49.242Z,43.4
2016-11-04T02:58:53.333Z,43.4
2016-11-04T03:03:57.422Z,43.4
2016-11-04T03:09:01.840Z,43.4
2016-11-04T03:14:06.254Z,43.4
2016-11-04T03:19:10.337Z,43.4
2016-11-04T03:24:14.425Z,43.4
2016-11-04T03:29:19.178Z,43.5
2016-11-04T03:34:23.596Z,43.4
2016-11-04T03:39:28.356Z,43.4
2016-11-04T03:44:32.779Z,43.4
2016-11-04T03:49:37.530Z,43.4
2016-11-04T03:54:41.951Z,43.4
2016-11-04T03:59:46.380Z,43.4
2016-11-04T04:04:51.136Z,43.3
2016-11-04T04:09:55.559Z,43.3
2016-11-04T04:14:59.647Z,43.3
2016-11-04T04:20:03.738Z,43.3
2016-11-04T04:25:08.161Z,43.3
2016-11-04T04:30:12.584Z,43.3
2016-11-04T04:35:16.667Z,43.4
2016-11-04T04:40:21.423Z,43.4
2016-11-04T04:45:25.512Z,43.5
2016-11-04T04:50:29.600Z,43.5
2016-11-04T04:55:34.026Z,43.6
2016-11-04T05:00:38.793Z,43.5
2016-11-04T05:05:43.551Z,43.5
2016-11-04T05:10:47.973Z,43.5
2016-11-04T05:15:52.063Z,43.5
2016-11-04T05:20:56.495Z,43.4
2016-11-04T05:26:00.582Z,43.4
2016-11-04T05:31:08.659Z,43.4
2016-11-04T05:36:13.491Z,43.4
2016-11-04T05:41:17.578Z,43.7
2016-11-04T05:46:21.669Z,44.3
2016-11-04T05:51:25.762Z,44.4
2016-11-04T05:56:29.887Z,44.7
2016-11-04T06:01:34.663Z,45.2
2016-11-04T06:06:39.090Z,45.2
2016-11-04T06:11:43.178Z,45.6
2016-11-04T06:16:47.944Z,45.4
2016-11-04T06:21:52.033Z,45.5
2016-11-04T06:26:56.463Z,45.6
2016-11-04T06:32:00.547Z,45.4
2016-11-04T06:37:05.635Z,45.1
2016-11-04T06:42:09.719Z,45.1
2016-11-04T06:47:14.140Z,45.1
2016-11-04T06:52:18.225Z,44.9
2016-11-04T06:57:22.664Z,44.9
2016-11-04T07:02:26.758Z,44.7
2016-11-04T07:07:30.891Z,44.6
2016-11-04T07:12:34.983Z,44.3
2016-11-04T07:17:39.072Z,44.1
2016-11-04T07:22:43.163Z,44
2016-11-04T07:27:47.253Z,43.9
2016-11-04T07:32:51.671Z,43.8
2016-11-04T07:37:55.783Z,43.8
2016-11-04T07:42:59.873Z,44.1
2016-11-04T07:48:03.963Z,44.2
2016-11-04T07:53:08.395Z,44.1
2016-11-04T07:58:12.499Z,44.1
2016-11-04T08:03:16.603Z,44.1
2016-11-04T08:08:20.693Z,44.1
2016-11-04T08:13:24.783Z,44
2016-11-04T08:18:28.875Z,43.9
2016-11-04T08:23:33.642Z,43.7
2016-11-04T08:28:38.069Z,43.7
2016-11-04T08:33:42.497Z,43.8
2016-11-04T08:38:46.920Z,44.4
2016-11-04T08:43:51.365Z,44.3
2016-11-04T08:48:55.449Z,44.2
2016-11-04T08:53:59.879Z,44.1
2016-11-04T08:59:03.973Z,44
2016-11-04T09:04:08.399Z,43.9
2016-11-04T09:09:12.824Z,43.9
2016-11-04T09:14:17.583Z,43.9
2016-11-04T09:19:21.671Z,43.9
2016-11-04T09:24:25.778Z,43.9
2016-11-04T09:29:30.200Z,43.9
2016-11-04T09:34:34.982Z,44
2016-11-04T09:39:39.408Z,44
2016-11-04T09:44:43.497Z,44
2016-11-04T09:49:47.592Z,43.9
2016-11-04T09:54:51.686Z,43.9
2016-11-04T09:59:55.791Z,43.9
2016-11-04T10:05:00.386Z,43.8
2016-11-04T10:10:04.512Z,43.7
2016-11-04T10:15:08.921Z,43.7
2016-11-04T10:20:13.350Z,43.7
2016-11-04T10:25:18.116Z,43.7
2016-11-04T10:30:22.204Z,43.7
2016-11-04T10:35:26.639Z,43.7
2016-11-04T10:40:31.071Z,43.8
2016-11-04T10:45:35.489Z,43.8
2016-11-04T10:50:39.586Z,43.9
2016-11-04T10:55:43.680Z,44.4
2016-11-04T11:00:48.113Z,43.6
2016-11-04T11:05:52.537Z,42.5
2016-11-04T11:10:56.970Z,41.4
2016-11-04T11:16:01.395Z,41.5
2016-11-04T11:21:06.164Z,42.8
2016-11-04T11:26:10.593Z,43.5
2016-11-04T11:31:15.034Z,42.5
2016-11-04T11:36:19.798Z,42
2016-11-04T11:41:24.221Z,41.9
2016-11-04T11:46:28.654Z,41.8
2016-11-04T11:51:33.088Z,41.8
2016-11-04T11:56:37.183Z,42
2016-11-04T12:01:41.616Z,42.2
2016-11-04T12:06:46.049Z,42.3
2016-11-04T12:11:50.322Z,42.7
2016-11-04T12:16:54.482Z,43.1
2016-11-04T12:21:58.908Z,43.1
2016-11-04T12:27:03.341Z,43
2016-11-04T12:32:08.109Z,43.1
2016-11-04T12:37:12.535Z,43.1
2016-11-04T12:42:16.963Z,43.1
2016-11-04T12:47:21.724Z,43.1
2016-11-04T12:52:25.817Z,43.1
2016-11-04T12:57:30.247Z,43.2
2016-11-04T13:02:35.015Z,43.2
2016-11-04T13:07:39.108Z,43.2
2016-11-04T13:12:43.534Z,43.2
2016-11-04T13:17:47.962Z,43.2
2016-11-04T13:22:52.062Z,43.2
2016-11-04T13:27:56.158Z,43.2
2016-11-04T13:33:00.260Z,43.2
2016-11-04T13:38:04.373Z,43.2
2016-11-04T13:43:08.817Z,43.5
2016-11-04T13:48:13.247Z,43.9
2016-11-04T13:53:17.679Z,43.9
2016-11-04T13:58:21.771Z,43.9
2016-11-04T14:03:26.206Z,43.9
2016-11-04T14:08:30.301Z,43.9
2016-11-04T14:13:34.482Z,43.9
2016-11-04T14:18:38.584Z,44
2016-11-04T14:23:42.915Z,44
2016-11-04T14:28:47.012Z,44.2
2016-11-04T14:33:51.435Z,44.3
2016-11-04T14:38:55.540Z,44.4
2016-11-04T14:43:59.657Z,44.7
2016-11-04T14:49:04.106Z,44.7
2016-11-04T14:54:08.198Z,44.8
2016-11-04T14:59:12.628Z,44.9
2016-11-04T15:04:17.055Z,45.8
2016-11-04T15:09:21.480Z,46.5
2016-11-04T15:14:25.604Z,46.7
2016-11-04T15:19:30.047Z,43.2
2016-11-04T15:24:34.487Z,44.8
2016-11-04T15:29:38.918Z,44
2016-11-04T15:34:43.548Z,42.4
2016-11-04T15:39:47.980Z,40.1
2016-11-04T15:44:52.407Z,40.5
2016-11-04T15:49:57.168Z,39.2
2016-11-04T15:55:01.950Z,39
2016-11-04T16:00:06.404Z,40.3
2016-11-04T16:05:10.832Z,41.7
2016-11-04T16:10:15.611Z,42.2
2016-11-04T16:15:19.710Z,42.5
2016-11-04T16:20:24.482Z,42.6
2016-11-04T16:25:28.580Z,42.5
2016-11-04T16:30:33.341Z,42.4
2016-11-04T16:35:37.428Z,42.2
2016-11-04T16:40:41.520Z,42.1
2016-11-04T16:45:45.947Z,41.9
2016-11-04T16:50:50.712Z,41.8
2016-11-04T16:55:55.148Z,41.7
2016-11-04T17:00:59.244Z,41.5
2016-11-04T17:06:03.339Z,41.4
2016-11-04T17:11:07.446Z,41.5
2016-11-04T17:16:11.965Z,42.1
2016-11-04T17:21:16.438Z,42.3
2016-11-04T17:26:20.544Z,42.4
2016-11-04T17:31:24.634Z,41.2
2016-11-04T17:36:28.751Z,41.4
2016-11-04T17:41:33.855Z,41.4
2016-11-04T17:46:38.293Z,41.1
2016-11-04T17:51:42.388Z,40.9
2016-11-04T17:56:46.485Z,40.8
2016-11-04T18:01:50.583Z,40.9
2016-11-04T18:06:55.705Z,40.9
2016-11-04T18:11:59.813Z,41
2016-11-04T18:17:04.246Z,40.9
2016-11-04T18:22:08.345Z,41.2
2016-11-04T18:27:12.805Z,41.9
2016-11-04T18:32:17.588Z,38.8
2016-11-04T18:37:21.689Z,38.8
2016-11-04T18:42:25.782Z,39.1
2016-11-04T18:47:29.895Z,39.9
2016-11-04T18:52:34.994Z,40.3
2016-11-04T18:57:39.432Z,40.9
2016-11-04T19:02:43.522Z,41.4
2016-11-04T19:07:47.611Z,41.7
2016-11-04T19:12:52.035Z,41.9
2016-11-04T19:17:56.798Z,42.3
2016-11-04T19:23:01.228Z,42.7
2016-11-04T19:28:05.322Z,42.8
2016-11-04T19:33:09.417Z,42.8
2016-11-04T19:38:13.511Z,42.8
2016-11-04T19:43:32.558Z,43
2016-11-04T19:48:36.991Z,43
2016-11-04T19:53:41.415Z,43.1
2016-11-04T19:58:45.845Z,43.2
2016-11-04T20:03:50.413Z,43.2
2016-11-04T20:08:55.497Z,43.3
2016-11-04T20:13:59.598Z,43.4
2016-11-04T20:19:03.713Z,43.5
2016-11-04T20:24:07.805Z,43.7
2016-11-04T20:29:12.647Z,43.7
2016-11-04T20:34:17.427Z,43.7
2016-11-04T20:39:21.926Z,43.7
2016-11-04T20:44:26.028Z,43.7
2016-11-04T20:49:30.452Z,43.8
2016-11-04T20:54:34.877Z,43.8
2016-11-04T20:59:38.961Z,43.8
2016-11-04T21:04:43.055Z,43.9
2016-11-04T21:09:47.147Z,43.8
2016-11-04T21:14:51.578Z,43.9
2016-11-04T21:19:55.696Z,43.9
2016-11-04T21:24:59.810Z,43.7
2016-11-04T21:30:04.248Z,43.6
2016-11-04T21:35:08.343Z,43.5
2016-11-04T21:40:12.774Z,43.5
2016-11-04T21:45:16.864Z,43.4
2016-11-04T21:50:20.953Z,43.4
2016-11-04T21:55:25.385Z,43.5
2016-11-04T22:00:29.476Z,43.5
2016-11-04T22:05:33.564Z,43.6
2016-11-04T22:10:37.986Z,43.6
2016-11-04T22:15:42.753Z,43.6
2016-11-04T22:20:48.056Z,43.6
2016-11-04T22:25:52.815Z,43.6
2016-11-04T22:30:56.915Z,43.6
2016-11-04T22:36:01.344Z,43.7
2016-11-04T22:41:05.480Z,43.6
2016-11-04T22:46:09.923Z,43.9
2016-11-04T22:51:14.359Z,43.6
2016-11-04T22:56:18.452Z,43.4
2016-11-04T23:01:22.541Z,43.1
2016-11-04T23:06:26.978Z,43.1
2016-11-04T23:11:31.067Z,42.9
2016-11-04T23:16:35.159Z,42.8
2016-11-04T23:21:39.921Z,42.7
2016-11-04T23:26:44.010Z,42.7
2016-11-04T23:31:48.101Z,42.7
2016-11-04T23:36:52.534Z,42.6
2016-11-04T23:41:56.961Z,42.6
2016-11-04T23:47:01.384Z,42.5
2016-11-04T23:52:05.481Z,42.5
2016-11-04T23:57:10.251Z,42.4
